sensor_id;sensor_type;location;lat;lon;timestamp;pressure;altitude;pressure_sealevel;temperature;humidity
13734;BME280;43298;52.560;13.508;2023-04-26T00:02:10;100746.63;;;5.24;100.00
13734;BME280;43298;52.560;13.508;2023-04-26T00:04:37;100744.22;;;5.17;100.00
13734;BME280;43298;52.560;13.508;2023-04-26T00:07:03;100743.41;;;5.13;100.00
13734;BME280;43298;52.560;13.508;2023-04-26T00:09:29;100747.72;;;5.13;100.00
13734;BME280;43298;52.560;13.508;2023-04-26T00:11:55;100745.06;;;5.16;100.00
13734;BME280;43298;52.560;13.508;2023-04-26T00:14:21;100746.09;;;5.07;100.00
13734;BME280;43298;52.560;13.508;2023-04-26T00:16:47;100748.56;;;5.12;100.00
13734;BME280;43298;52.560;13.508;2023-04-26T00:19:13;100744.41;;;5.06;100.00
13734;BME280;43298;52.560;13.508;2023-04-26T00:21:39;100745.28;;;5.07;100.00
13734;BME280;43298;52.560;13.508;2023-04-26T00:24:05;100749.53;;;5.06;100.00
13734;BME280;43298;52.560;13.508;2023-04-26T00:26:31;100758.34;;;4.93;100.00
13734;BME280;43298;52.560;13.508;2023-04-26T00:28:59;100753.16;;;4.95;100.00
13734;BME280;43298;52.560;13.508;2023-04-26T00:31:25;100756.81;;;4.85;100.00
13734;BME280;43298;52.560;13.508;2023-04-26T00:33:51;100753.31;;;4.87;100.00
13734;BME280;43298;52.560;13.508;2023-04-26T00:36:17;100753.34;;;4.86;100.00
13734;BME280;43298;52.560;13.508;2023-04-26T00:38:47;100752.59;;;4.81;100.00
13734;BME280;43298;52.560;13.508;2023-04-26T00:41:13;100750.84;;;4.83;100.00
13734;BME280;43298;52.560;13.508;2023-04-26T00:43:39;100745.78;;;4.78;100.00
13734;BME280;43298;52.560;13.508;2023-04-26T00:46:08;100749.25;;;4.77;100.00
13734;BME280;43298;52.560;13.508;2023-04-26T00:48:36;100758.63;;;4.77;100.00
13734;BME280;43298;52.560;13.508;2023-04-26T00:51:03;100760.41;;;4.73;100.00
13734;BME280;43298;52.560;13.508;2023-04-26T00:53:30;100765.56;;;4.72;100.00
13734;BME280;43298;52.560;13.508;2023-04-26T00:55:57;100748.63;;;4.65;100.00
13734;BME280;43298;52.560;13.508;2023-04-26T00:58:24;100759.72;;;4.65;100.00
13734;BME280;43298;52.560;13.508;2023-04-26T01:00:50;100752.91;;;4.63;100.00
13734;BME280;43298;52.560;13.508;2023-04-26T01:03:16;100755.53;;;4.61;100.00
13734;BME280;43298;52.560;13.508;2023-04-26T01:05:43;100758.97;;;4.57;100.00
13734;BME280;43298;52.560;13.508;2023-04-26T01:08:09;100760.81;;;4.51;100.00
13734;BME280;43298;52.560;13.508;2023-04-26T01:10:35;100759.00;;;4.56;100.00
13734;BME280;43298;52.560;13.508;2023-04-26T01:13:02;100763.38;;;4.51;100.00
13734;BME280;43298;52.560;13.508;2023-04-26T01:15:28;100762.44;;;4.55;100.00
13734;BME280;43298;52.560;13.508;2023-04-26T01:17:58;100754.06;;;4.47;100.00
13734;BME280;43298;52.560;13.508;2023-04-26T01:20:24;100760.06;;;4.44;100.00
13734;BME280;43298;52.560;13.508;2023-04-26T01:22:50;100763.47;;;4.45;100.00
13734;BME280;43298;52.560;13.508;2023-04-26T01:25:16;100768.69;;;4.40;100.00
13734;BME280;43298;52.560;13.508;2023-04-26T01:27:43;100767.13;;;4.30;100.00
13734;BME280;43298;52.560;13.508;2023-04-26T01:30:09;100765.31;;;4.37;100.00
13734;BME280;43298;52.560;13.508;2023-04-26T01:32:35;100778.13;;;4.35;100.00
13734;BME280;43298;52.560;13.508;2023-04-26T01:35:02;100772.09;;;4.38;100.00
13734;BME280;43298;52.560;13.508;2023-04-26T01:37:28;100779.00;;;4.34;100.00
13734;BME280;43298;52.560;13.508;2023-04-26T01:39:54;100775.69;;;4.29;100.00
13734;BME280;43298;52.560;13.508;2023-04-26T01:42:20;100781.59;;;4.33;100.00
13734;BME280;43298;52.560;13.508;2023-04-26T01:44:46;100786.69;;;4.33;100.00
13734;BME280;43298;52.560;13.508;2023-04-26T01:47:12;100787.59;;;4.30;100.00
13734;BME280;43298;52.560;13.508;2023-04-26T01:49:38;100785.03;;;4.30;100.00
13734;BME280;43298;52.560;13.508;2023-04-26T01:52:03;100791.06;;;4.28;100.00
13734;BME280;43298;52.560;13.508;2023-04-26T01:54:29;100790.25;;;4.24;100.00
13734;BME280;43298;52.560;13.508;2023-04-26T01:56:55;100788.59;;;4.22;100.00
13734;BME280;43298;52.560;13.508;2023-04-26T01:59:21;100785.25;;;4.17;100.00
13734;BME280;43298;52.560;13.508;2023-04-26T02:01:47;100792.97;;;4.14;100.00
13734;BME280;43298;52.560;13.508;2023-04-26T02:04:13;100791.22;;;4.16;100.00
13734;BME280;43298;52.560;13.508;2023-04-26T02:06:38;100785.25;;;4.17;100.00
13734;BME280;43298;52.560;13.508;2023-04-26T02:09:06;100784.38;;;4.19;100.00
13734;BME280;43298;52.560;13.508;2023-04-26T02:11:34;100788.63;;;4.19;100.00
13734;BME280;43298;52.560;13.508;2023-04-26T02:14:00;100781.88;;;4.15;100.00
13734;BME280;43298;52.560;13.508;2023-04-26T02:16:26;100788.72;;;4.11;100.00
13734;BME280;43298;52.560;13.508;2023-04-26T02:18:53;100781.97;;;4.07;100.00
13734;BME280;43298;52.560;13.508;2023-04-26T02:21:19;100777.69;;;4.09;100.00
13734;BME280;43298;52.560;13.508;2023-04-26T02:23:46;100781.88;;;4.13;100.00
13734;BME280;43298;52.560;13.508;2023-04-26T02:26:12;100781.16;;;4.05;100.00
13734;BME280;43298;52.560;13.508;2023-04-26T02:28:38;100773.59;;;3.98;100.00
13734;BME280;43298;52.560;13.508;2023-04-26T02:31:04;100783.78;;;3.99;100.00
13734;BME280;43298;52.560;13.508;2023-04-26T02:33:30;100777.06;;;3.94;100.00
13734;BME280;43298;52.560;13.508;2023-04-26T02:35:56;100784.72;;;3.95;100.00
13734;BME280;43298;52.560;13.508;2023-04-26T02:38:24;100775.41;;;3.91;100.00
13734;BME280;43298;52.560;13.508;2023-04-26T02:41:00;100783.06;;;3.93;100.00
13734;BME280;43298;52.560;13.508;2023-04-26T02:43:26;100783.88;;;3.92;100.00
13734;BME280;43298;52.560;13.508;2023-04-26T02:45:52;100786.41;;;3.95;100.00
13734;BME280;43298;52.560;13.508;2023-04-26T02:48:18;100780.56;;;3.87;100.00
13734;BME280;43298;52.560;13.508;2023-04-26T02:50:45;100784.00;;;3.86;100.00
13734;BME280;43298;52.560;13.508;2023-04-26T02:53:11;100784.81;;;3.88;100.00
13734;BME280;43298;52.560;13.508;2023-04-26T02:55:38;100780.56;;;3.87;100.00
13734;BME280;43298;52.560;13.508;2023-04-26T02:58:04;100791.66;;;3.87;100.00
13734;BME280;43298;52.560;13.508;2023-04-26T03:00:31;100779.81;;;3.80;100.00
13734;BME280;43298;52.560;13.508;2023-04-26T03:02:58;100778.09;;;3.81;100.00
13734;BME280;43298;52.560;13.508;2023-04-26T03:05:24;100792.59;;;3.80;100.00
13734;BME280;43298;52.560;13.508;2023-04-26T03:07:51;100784.97;;;3.77;100.00
13734;BME280;43298;52.560;13.508;2023-04-26T03:10:16;100784.22;;;3.71;100.00
13734;BME280;43298;52.560;13.508;2023-04-26T03:12:42;100787.56;;;3.74;100.00
13734;BME280;43298;52.560;13.508;2023-04-26T03:15:08;100794.44;;;3.71;100.00
13734;BME280;43298;52.560;13.508;2023-04-26T03:17:34;100787.56;;;3.73;100.00
13734;BME280;43298;52.560;13.508;2023-04-26T03:20:00;100787.50;;;3.79;100.00
13734;BME280;43298;52.560;13.508;2023-04-26T03:22:26;100790.97;;;3.75;100.00
13734;BME280;43298;52.560;13.508;2023-04-26T03:24:52;100789.25;;;3.74;100.00
13734;BME280;43298;52.560;13.508;2023-04-26T03:27:18;100790.19;;;3.67;100.00
13734;BME280;43298;52.560;13.508;2023-04-26T03:29:43;100793.59;;;3.69;100.00
13734;BME280;43298;52.560;13.508;2023-04-26T03:32:09;100793.66;;;3.64;100.00
13734;BME280;43298;52.560;13.508;2023-04-26T03:34:35;100803.06;;;3.64;100.00
13734;BME280;43298;52.560;13.508;2023-04-26T03:37:01;100807.31;;;3.63;100.00
13734;BME280;43298;52.560;13.508;2023-04-26T03:39:27;100806.47;;;3.60;100.00
13734;BME280;43298;52.560;13.508;2023-04-26T03:41:53;100798.00;;;3.58;100.00
13734;BME280;43298;52.560;13.508;2023-04-26T03:44:19;100803.06;;;3.62;100.00
13734;BME280;43298;52.560;13.508;2023-04-26T03:46:45;100802.19;;;3.63;100.00
13734;BME280;43298;52.560;13.508;2023-04-26T03:49:10;100811.66;;;3.57;100.00
13734;BME280;43298;52.560;13.508;2023-04-26T03:51:36;100812.47;;;3.59;100.00
13734;BME280;43298;52.560;13.508;2023-04-26T03:54:02;100808.28;;;3.53;100.00
13734;BME280;43298;52.560;13.508;2023-04-26T03:56:28;100810.06;;;3.48;100.00
13734;BME280;43298;52.560;13.508;2023-04-26T03:58:53;100810.84;;;3.52;100.00
13734;BME280;43298;52.560;13.508;2023-04-26T04:01:19;100811.59;;;3.60;100.00
13734;BME280;43298;52.560;13.508;2023-04-26T04:03:45;100820.97;;;3.62;100.00
13734;BME280;43298;52.560;13.508;2023-04-26T04:06:11;100821.78;;;3.63;100.00
13734;BME280;43298;52.560;13.508;2023-04-26T04:08:37;100820.97;;;3.61;100.00
13734;BME280;43298;52.560;13.508;2023-04-26T04:11:03;100819.25;;;3.61;100.00
13734;BME280;43298;52.560;13.508;2023-04-26T04:13:29;100816.72;;;3.60;100.00
13734;BME280;43298;52.560;13.508;2023-04-26T04:15:54;100820.94;;;3.65;100.00
13734;BME280;43298;52.560;13.508;2023-04-26T04:18:20;100824.34;;;3.61;100.00
13734;BME280;43298;52.560;13.508;2023-04-26T04:20:46;100830.31;;;3.65;100.00
13734;BME280;43298;52.560;13.508;2023-04-26T04:23:12;100830.28;;;3.66;100.00
13734;BME280;43298;52.560;13.508;2023-04-26T04:25:38;100829.41;;;3.67;100.00
13734;BME280;43298;52.560;13.508;2023-04-26T04:28:04;100831.03;;;3.74;100.00
13734;BME280;43298;52.560;13.508;2023-04-26T04:30:30;100826.75;;;3.78;100.00
13734;BME280;43298;52.560;13.508;2023-04-26T04:32:56;100828.44;;;3.77;100.00
13734;BME280;43298;52.560;13.508;2023-04-26T04:35:25;100827.56;;;3.78;100.00
13734;BME280;43298;52.560;13.508;2023-04-26T04:37:56;100837.00;;;3.75;100.00
13734;BME280;43298;52.560;13.508;2023-04-26T04:40:24;100833.47;;;3.85;100.00
13734;BME280;43298;52.560;13.508;2023-04-26T04:42:50;100838.50;;;3.88;100.00
13734;BME280;43298;52.560;13.508;2023-04-26T04:45:16;100846.13;;;3.92;100.00
13734;BME280;43298;52.560;13.508;2023-04-26T04:47:43;100841.00;;;3.94;100.00
13734;BME280;43298;52.560;13.508;2023-04-26T04:50:09;100847.78;;;3.96;100.00
13734;BME280;43298;52.560;13.508;2023-04-26T04:52:35;100843.50;;;4.00;100.00
13734;BME280;43298;52.560;13.508;2023-04-26T04:55:02;100842.53;;;4.08;100.00
13734;BME280;43298;52.560;13.508;2023-04-26T04:57:29;100846.75;;;4.09;100.00
13734;BME280;43298;52.560;13.508;2023-04-26T04:59:56;100857.72;;;4.17;100.00
13734;BME280;43298;52.560;13.508;2023-04-26T05:02:22;100851.69;;;4.21;100.00
13734;BME280;43298;52.560;13.508;2023-04-26T05:04:47;100858.44;;;4.27;100.00
13734;BME280;43298;52.560;13.508;2023-04-26T05:07:13;100853.25;;;4.33;100.00
13734;BME280;43298;52.560;13.508;2023-04-26T05:09:41;100856.59;;;4.36;100.00
13734;BME280;43298;52.560;13.508;2023-04-26T05:12:07;100863.41;;;4.39;100.00
13734;BME280;43298;52.560;13.508;2023-04-26T05:14:33;100865.84;;;4.45;100.00
13734;BME280;43298;52.560;13.508;2023-04-26T05:16:59;100864.09;;;4.50;100.00
13734;BME280;43298;52.560;13.508;2023-04-26T05:19:24;100870.09;;;4.49;100.00
13734;BME280;43298;52.560;13.508;2023-04-26T05:21:51;100863.97;;;4.56;100.00
13734;BME280;43298;52.560;13.508;2023-04-26T05:24:17;100869.84;;;4.64;100.00
13734;BME280;43298;52.560;13.508;2023-04-26T05:26:43;100868.94;;;4.68;100.00
13734;BME280;43298;52.560;13.508;2023-04-26T05:29:09;100878.31;;;4.67;100.00
13734;BME280;43298;52.560;13.508;2023-04-26T05:31:35;100874.88;;;4.68;100.00
13734;BME280;43298;52.560;13.508;2023-04-26T05:34:01;100874.66;;;4.83;100.00
13734;BME280;43298;52.560;13.508;2023-04-26T05:36:26;100881.44;;;4.86;100.00
13734;BME280;43298;52.560;13.508;2023-04-26T05:38:52;100886.38;;;4.96;100.00
13734;BME280;43298;52.560;13.508;2023-04-26T05:41:18;100889.69;;;5.04;100.00
13734;BME280;43298;52.560;13.508;2023-04-26T05:43:46;100890.53;;;5.03;100.00
13734;BME280;43298;52.560;13.508;2023-04-26T05:46:12;100888.72;;;5.11;100.00
13734;BME280;43298;52.560;13.508;2023-04-26T05:48:37;100892.09;;;5.12;100.00
13734;BME280;43298;52.560;13.508;2023-04-26T05:51:04;100895.22;;;5.29;100.00
13734;BME280;43298;52.560;13.508;2023-04-26T05:53:30;100894.25;;;5.34;100.00
13734;BME280;43298;52.560;13.508;2023-04-26T05:55:55;100897.28;;;5.56;100.00
13734;BME280;43298;52.560;13.508;2023-04-26T05:58:21;100888.34;;;5.75;100.00
13734;BME280;43298;52.560;13.508;2023-04-26T06:00:47;100895.38;;;6.09;100.00
13734;BME280;43298;52.560;13.508;2023-04-26T06:03:13;100888.72;;;6.41;100.00
13734;BME280;43298;52.560;13.508;2023-04-26T06:05:39;100885.56;;;6.66;100.00
13734;BME280;43298;52.560;13.508;2023-04-26T06:08:05;100891.13;;;6.83;100.00
13734;BME280;43298;52.560;13.508;2023-04-26T06:10:34;100895.66;;;7.07;100.00
13734;BME280;43298;52.560;13.508;2023-04-26T06:12:59;100896.47;;;7.43;100.00
13734;BME280;43298;52.560;13.508;2023-04-26T06:15:25;100898.59;;;7.59;100.00
13734;BME280;43298;52.560;13.508;2023-04-26T06:17:52;100892.56;;;7.60;100.00
13734;BME280;43298;52.560;13.508;2023-04-26T06:20:18;100894.81;;;7.07;100.00
13734;BME280;43298;52.560;13.508;2023-04-26T06:22:44;100898.59;;;7.27;100.00
13734;BME280;43298;52.560;13.508;2023-04-26T06:25:10;100899.03;;;7.43;100.00
13734;BME280;43298;52.560;13.508;2023-04-26T06:27:36;100895.00;;;7.33;100.00
13734;BME280;43298;52.560;13.508;2023-04-26T06:30:05;100895.50;;;7.47;100.00
13734;BME280;43298;52.560;13.508;2023-04-26T06:32:32;100895.13;;;7.91;100.00
13734;BME280;43298;52.560;13.508;2023-04-26T06:34:58;100903.88;;;7.85;100.00
13734;BME280;43298;52.560;13.508;2023-04-26T06:37:24;100908.66;;;7.35;100.00
13734;BME280;43298;52.560;13.508;2023-04-26T06:39:49;100913.56;;;7.45;100.00
13734;BME280;43298;52.560;13.508;2023-04-26T06:42:15;100915.63;;;7.31;100.00
13734;BME280;43298;52.560;13.508;2023-04-26T06:44:41;100912.03;;;7.38;100.00
13734;BME280;43298;52.560;13.508;2023-04-26T06:47:07;100915.81;;;7.56;100.00
13734;BME280;43298;52.560;13.508;2023-04-26T06:49:34;100916.41;;;7.33;100.00
13734;BME280;43298;52.560;13.508;2023-04-26T06:52:00;100904.78;;;6.85;100.00
13734;BME280;43298;52.560;13.508;2023-04-26T06:54:29;100917.47;;;7.26;100.00
13734;BME280;43298;52.560;13.508;2023-04-26T06:56:55;100919.56;;;7.44;100.00
13734;BME280;43298;52.560;13.508;2023-04-26T06:59:21;100904.28;;;8.01;100.00
13734;BME280;43298;52.560;13.508;2023-04-26T07:01:47;100914.88;;;7.90;100.00
13734;BME280;43298;52.560;13.508;2023-04-26T07:04:13;100919.47;;;7.79;100.00
13734;BME280;43298;52.560;13.508;2023-04-26T07:06:39;100912.97;;;7.66;100.00
13734;BME280;43298;52.560;13.508;2023-04-26T07:09:05;100916.03;;;7.80;100.00
13734;BME280;43298;52.560;13.508;2023-04-26T07:11:32;100914.34;;;8.39;100.00
13734;BME280;43298;52.560;13.508;2023-04-26T07:13:58;100918.56;;;8.69;100.00
13734;BME280;43298;52.560;13.508;2023-04-26T07:16:24;100915.50;;;8.56;100.00
13734;BME280;43298;52.560;13.508;2023-04-26T07:18:50;100913.28;;;8.73;100.00
13734;BME280;43298;52.560;13.508;2023-04-26T07:21:17;100911.94;;;8.88;100.00
13734;BME280;43298;52.560;13.508;2023-04-26T07:23:43;100908.81;;;8.78;100.00
13734;BME280;43298;52.560;13.508;2023-04-26T07:26:12;100917.56;;;8.45;100.00
13734;BME280;43298;52.560;13.508;2023-04-26T07:28:38;100916.28;;;8.31;100.00
13734;BME280;43298;52.560;13.508;2023-04-26T07:31:04;100912.97;;;9.35;100.00
13734;BME280;43298;52.560;13.508;2023-04-26T07:33:30;100915.97;;;9.23;100.00
13734;BME280;43298;52.560;13.508;2023-04-26T07:35:58;100920.47;;;8.90;100.00
13734;BME280;43298;52.560;13.508;2023-04-26T07:38:24;100917.44;;;9.30;100.00
13734;BME280;43298;52.560;13.508;2023-04-26T07:40:51;100916.31;;;8.58;100.00
13734;BME280;43298;52.560;13.508;2023-04-26T07:43:19;100921.28;;;8.64;100.00
13734;BME280;43298;52.560;13.508;2023-04-26T07:45:45;100918.75;;;8.90;100.00
13734;BME280;43298;52.560;13.508;2023-04-26T07:48:11;100923.97;;;8.60;100.00
13734;BME280;43298;52.560;13.508;2023-04-26T07:50:37;100923.38;;;8.24;100.00
13734;BME280;43298;52.560;13.508;2023-04-26T07:53:03;100922.13;;;8.37;100.00
13734;BME280;43298;52.560;13.508;2023-04-26T07:55:29;100923.78;;;8.93;100.00
13734;BME280;43298;52.560;13.508;2023-04-26T07:57:55;100924.28;;;9.04;100.00
13734;BME280;43298;52.560;13.508;2023-04-26T08:00:21;100927.97;;;9.48;100.00
13734;BME280;43298;52.560;13.508;2023-04-26T08:02:47;100929.47;;;8.77;100.00
13734;BME280;43298;52.560;13.508;2023-04-26T08:05:14;100932.66;;;8.57;100.00
13734;BME280;43298;52.560;13.508;2023-04-26T08:07:41;100928.78;;;8.98;100.00
13734;BME280;43298;52.560;13.508;2023-04-26T08:10:08;100928.13;;;9.44;100.00
13734;BME280;43298;52.560;13.508;2023-04-26T08:12:36;100924.66;;;9.18;100.00
13734;BME280;43298;52.560;13.508;2023-04-26T08:15:03;100929.41;;;9.57;100.00
13734;BME280;43298;52.560;13.508;2023-04-26T08:17:30;100931.59;;;9.18;100.00
13734;BME280;43298;52.560;13.508;2023-04-26T08:19:57;100925.41;;;8.70;100.00
13734;BME280;43298;52.560;13.508;2023-04-26T08:22:23;100930.41;;;8.47;100.00
13734;BME280;43298;52.560;13.508;2023-04-26T08:24:53;100927.59;;;8.54;100.00
13734;BME280;43298;52.560;13.508;2023-04-26T08:27:19;100930.28;;;8.51;100.00
13734;BME280;43298;52.560;13.508;2023-04-26T08:29:45;100926.63;;;8.58;100.00
13734;BME280;43298;52.560;13.508;2023-04-26T08:32:11;100930.50;;;8.71;99.67
13734;BME280;43298;52.560;13.508;2023-04-26T08:34:37;100934.53;;;9.06;99.55
13734;BME280;43298;52.560;13.508;2023-04-26T08:37:05;100937.06;;;9.07;100.00
13734;BME280;43298;52.560;13.508;2023-04-26T08:39:32;100932.91;;;9.03;100.00
13734;BME280;43298;52.560;13.508;2023-04-26T08:42:04;100937.88;;;8.83;100.00
13734;BME280;43298;52.560;13.508;2023-04-26T08:44:34;100938.84;;;8.79;100.00
13734;BME280;43298;52.560;13.508;2023-04-26T08:47:15;100936.88;;;8.60;98.89
13734;BME280;43298;52.560;13.508;2023-04-26T08:49:50;100934.16;;;8.64;98.38
13734;BME280;43298;52.560;13.508;2023-04-26T08:52:22;100933.31;;;9.68;96.63
13734;BME280;43298;52.560;13.508;2023-04-26T08:54:49;100926.59;;;10.56;94.92
13734;BME280;43298;52.560;13.508;2023-04-26T08:57:17;100926.34;;;10.62;94.67
13734;BME280;43298;52.560;13.508;2023-04-26T08:59:45;100933.59;;;9.59;93.98
13734;BME280;43298;52.560;13.508;2023-04-26T09:02:20;100943.31;;;9.00;98.50
13734;BME280;43298;52.560;13.508;2023-04-26T09:04:47;100936.97;;;8.84;100.00
13734;BME280;43298;52.560;13.508;2023-04-26T09:07:45;100940.47;;;8.83;100.00
13734;BME280;43298;52.560;13.508;2023-04-26T09:10:15;100944.63;;;8.87;100.00
13734;BME280;43298;52.560;13.508;2023-04-26T09:12:44;100953.28;;;9.12;98.36
13734;BME280;43298;52.560;13.508;2023-04-26T09:15:10;100950.28;;;9.75;96.90
13734;BME280;43298;52.560;13.508;2023-04-26T09:17:39;100940.91;;;9.96;92.88
13734;BME280;43298;52.560;13.508;2023-04-26T09:20:29;100946.47;;;9.61;95.03
13734;BME280;43298;52.560;13.508;2023-04-26T09:23:07;100951.84;;;9.55;96.33
13734;BME280;43298;52.560;13.508;2023-04-26T09:25:34;100947.50;;;9.31;97.12
13734;BME280;43298;52.560;13.508;2023-04-26T09:28:01;100948.88;;;9.14;96.86
13734;BME280;43298;52.560;13.508;2023-04-26T09:30:28;100952.94;;;9.21;97.00
13734;BME280;43298;52.560;13.508;2023-04-26T09:33:02;100951.59;;;9.87;98.16
13734;BME280;43298;52.560;13.508;2023-04-26T09:35:37;100940.34;;;10.12;93.18
13734;BME280;43298;52.560;13.508;2023-04-26T09:38:21;100944.72;;;9.86;90.86
13734;BME280;43298;52.560;13.508;2023-04-26T09:40:49;100940.84;;;9.74;90.38
13734;BME280;43298;52.560;13.508;2023-04-26T09:43:18;100949.56;;;9.46;93.33
13734;BME280;43298;52.560;13.508;2023-04-26T09:45:57;100955.06;;;9.61;94.90
13734;BME280;43298;52.560;13.508;2023-04-26T09:48:28;100953.44;;;9.32;91.81
13734;BME280;43298;52.560;13.508;2023-04-26T09:53:40;100961.41;;;9.27;100.00
13734;BME280;43298;52.560;13.508;2023-04-26T09:56:13;100957.50;;;9.40;97.87
13734;BME280;43298;52.560;13.508;2023-04-26T10:01:17;100946.28;;;10.37;96.29
13734;BME280;43298;52.560;13.508;2023-04-26T10:03:44;100942.56;;;10.67;90.68
13734;BME280;43298;52.560;13.508;2023-04-26T10:06:12;100938.97;;;11.13;89.07
13734;BME280;43298;52.560;13.508;2023-04-26T10:08:38;100933.78;;;11.34;85.61
13734;BME280;43298;52.560;13.508;2023-04-26T10:11:05;100932.94;;;11.12;83.62
13734;BME280;43298;52.560;13.508;2023-04-26T10:13:38;100939.34;;;10.82;85.20
13734;BME280;43298;52.560;13.508;2023-04-26T10:16:04;100942.59;;;10.66;88.69
13734;BME280;43298;52.560;13.508;2023-04-26T10:18:31;100936.66;;;11.27;83.65
13734;BME280;43298;52.560;13.508;2023-04-26T10:23:35;100938.78;;;13.26;75.61
13734;BME280;43298;52.560;13.508;2023-04-26T10:26:01;100943.00;;;13.45;69.74
13734;BME280;43298;52.560;13.508;2023-04-26T10:31:08;100933.19;;;11.48;73.91
13734;BME280;43298;52.560;13.508;2023-04-26T10:33:35;100943.00;;;12.00;74.93
13734;BME280;43298;52.560;13.508;2023-04-26T10:36:10;100939.91;;;11.92;74.25
13734;BME280;43298;52.560;13.508;2023-04-26T10:39:19;100940.50;;;11.38;76.75
13734;BME280;43298;52.560;13.508;2023-04-26T10:41:49;100938.19;;;11.11;76.16
13734;BME280;43298;52.560;13.508;2023-04-26T10:44:40;100943.03;;;10.77;77.72
13734;BME280;43298;52.560;13.508;2023-04-26T10:47:26;100941.59;;;10.47;77.72
13734;BME280;43298;52.560;13.508;2023-04-26T10:50:00;100956.13;;;10.28;78.77
13734;BME280;43298;52.560;13.508;2023-04-26T10:52:26;100940.88;;;10.20;79.43
13734;BME280;43298;52.560;13.508;2023-04-26T10:54:57;100950.41;;;10.64;79.54
13734;BME280;43298;52.560;13.508;2023-04-26T10:57:59;100946.22;;;11.25;80.76
13734;BME280;43298;52.560;13.508;2023-04-26T11:00:28;100953.47;;;12.17;76.28
13734;BME280;43298;52.560;13.508;2023-04-26T11:03:02;100942.31;;;13.42;70.63
13734;BME280;43298;52.560;13.508;2023-04-26T11:05:34;100945.16;;;13.02;71.55
13734;BME280;43298;52.560;13.508;2023-04-26T11:08:16;100940.91;;;11.69;72.65
13734;BME280;43298;52.560;13.508;2023-04-26T11:10:48;100947.78;;;11.29;75.32
13734;BME280;43298;52.560;13.508;2023-04-26T11:13:16;100945.28;;;10.84;77.19
13734;BME280;43298;52.560;13.508;2023-04-26T11:15:44;100944.44;;;10.41;79.92
13734;BME280;43298;52.560;13.508;2023-04-26T11:18:11;100958.56;;;10.54;80.61
13734;BME280;43298;52.560;13.508;2023-04-26T11:20:37;100954.75;;;10.64;77.93
13734;BME280;43298;52.560;13.508;2023-04-26T11:23:03;100950.13;;;10.93;76.62
13734;BME280;43298;52.560;13.508;2023-04-26T11:25:32;100956.59;;;10.82;74.12
13734;BME280;43298;52.560;13.508;2023-04-26T11:28:02;100948.34;;;11.37;73.50
13734;BME280;43298;52.560;13.508;2023-04-26T11:30:29;100951.06;;;11.54;73.41
13734;BME280;43298;52.560;13.508;2023-04-26T11:33:01;100941.88;;;12.44;71.86
13734;BME280;43298;52.560;13.508;2023-04-26T11:35:28;100949.34;;;12.13;68.53
13734;BME280;43298;52.560;13.508;2023-04-26T11:37:58;100947.44;;;11.58;69.05
13734;BME280;43298;52.560;13.508;2023-04-26T11:40:29;100950.88;;;11.17;71.36
13734;BME280;43298;52.560;13.508;2023-04-26T11:43:04;100952.88;;;11.10;72.22
13734;BME280;43298;52.560;13.508;2023-04-26T11:45:35;100957.28;;;11.70;71.76
13734;BME280;43298;52.560;13.508;2023-04-26T11:48:04;100939.38;;;12.23;70.83
13734;BME280;43298;52.560;13.508;2023-04-26T11:50:35;100950.03;;;11.78;70.22
13734;BME280;43298;52.560;13.508;2023-04-26T11:53:06;100954.50;;;12.87;68.92
13734;BME280;43298;52.560;13.508;2023-04-26T11:55:34;100954.88;;;12.24;68.94
13734;BME280;43298;52.560;13.508;2023-04-26T11:58:08;100958.31;;;13.16;65.99
13734;BME280;43298;52.560;13.508;2023-04-26T12:00:34;100962.97;;;12.74;64.10
13734;BME280;43298;52.560;13.508;2023-04-26T12:03:06;100957.91;;;12.34;65.35
13734;BME280;43298;52.560;13.508;2023-04-26T12:05:35;100954.19;;;12.39;67.42
13734;BME280;43298;52.560;13.508;2023-04-26T12:08:01;100934.78;;;11.90;65.89
13734;BME280;43298;52.560;13.508;2023-04-26T12:10:39;100951.94;;;12.32;67.30
13734;BME280;43298;52.560;13.508;2023-04-26T12:13:04;100953.06;;;13.34;64.35
13734;BME280;43298;52.560;13.508;2023-04-26T12:15:33;100950.00;;;13.77;60.78
13734;BME280;43298;52.560;13.508;2023-04-26T12:18:09;100943.06;;;13.61;61.22
13734;BME280;43298;52.560;13.508;2023-04-26T12:20:40;100959.63;;;15.18;61.78
13734;BME280;43298;52.560;13.508;2023-04-26T12:23:14;100955.22;;;13.26;61.01
13734;BME280;43298;52.560;13.508;2023-04-26T12:25:54;100950.94;;;12.71;62.08
13734;BME280;43298;52.560;13.508;2023-04-26T12:28:22;100955.66;;;12.45;66.01
13734;BME280;43298;52.560;13.508;2023-04-26T12:30:48;100957.59;;;12.77;66.87
13734;BME280;43298;52.560;13.508;2023-04-26T12:33:15;100956.91;;;13.27;64.40
13734;BME280;43298;52.560;13.508;2023-04-26T12:35:41;100958.56;;;13.28;63.55
13734;BME280;43298;52.560;13.508;2023-04-26T12:38:07;100956.97;;;12.53;63.03
13734;BME280;43298;52.560;13.508;2023-04-26T12:40:34;100963.97;;;11.95;66.22
13734;BME280;43298;52.560;13.508;2023-04-26T12:43:01;100958.78;;;11.75;67.54
13734;BME280;43298;52.560;13.508;2023-04-26T12:45:27;100962.66;;;12.24;68.63
13734;BME280;43298;52.560;13.508;2023-04-26T12:47:53;100966.00;;;13.36;67.07
13734;BME280;43298;52.560;13.508;2023-04-26T12:50:19;100967.09;;;12.41;67.17
13734;BME280;43298;52.560;13.508;2023-04-26T12:52:46;100970.09;;;12.87;66.23
13734;BME280;43298;52.560;13.508;2023-04-26T12:55:13;100965.44;;;13.80;65.20